createdAt,value
2022-11-05T00:00:40.287Z,11.40
2022-11-05T00:03:30.812Z,8.90
2022-11-05T00:06:18.265Z,8.60
2022-11-05T00:09:05.799Z,10.30
2022-11-05T00:11:54.182Z,9.10
2022-11-05T00:14:42.063Z,10.10
2022-11-05T00:17:10.872Z,10.50
2022-11-05T00:19:39.613Z,10.20
2022-11-05T00:22:26.815Z,10.80
2022-11-05T00:25:14.264Z,10.30
2022-11-05T00:27:47.401Z,11.00
2022-11-05T00:30:20.447Z,10.30
2022-11-05T00:32:49.933Z,10.30
2022-11-05T00:35:19.562Z,9.70
2022-11-05T00:37:50.275Z,9.10
2022-11-05T00:40:19.940Z,9.30
2022-11-05T00:43:07.065Z,11.10
2022-11-05T00:45:37.800Z,10.60
2022-11-05T00:48:25.252Z,10.70
2022-11-05T00:50:54.100Z,10.60
2022-11-05T00:53:22.839Z,10.40
2022-11-05T00:55:51.597Z,10.00
2022-11-05T00:58:21.029Z,8.80
2022-11-05T01:00:51.148Z,8.90
2022-11-05T01:03:30.383Z,8.30
2022-11-05T01:06:00.290Z,9.40
2022-11-05T01:08:29.137Z,9.70
2022-11-05T01:10:58.868Z,10.00
2022-11-05T01:13:29.574Z,9.80
2022-11-05T01:16:04.308Z,10.30
2022-11-05T01:18:33.085Z,9.60
2022-11-05T01:21:09.626Z,8.40
2022-11-05T01:23:38.479Z,9.50
2022-11-05T01:26:07.253Z,9.70
2022-11-05T01:28:36.103Z,9.20
2022-11-05T01:31:04.996Z,8.70
2022-11-05T01:33:33.815Z,9.60
2022-11-05T01:36:04.523Z,9.20
2022-11-05T01:38:33.357Z,7.60
2022-11-05T01:41:02.111Z,10.40
2022-11-05T01:43:45.571Z,9.90
2022-11-05T01:46:14.617Z,8.70
2022-11-05T01:48:43.581Z,9.20
2022-11-05T01:51:16.235Z,9.20
2022-11-05T01:53:45.039Z,7.80
2022-11-05T01:56:16.188Z,9.30
2022-11-05T01:58:44.936Z,9.60
2022-11-05T02:01:13.801Z,9.80
2022-11-05T02:03:43.018Z,9.90
2022-11-05T02:06:11.991Z,9.80
2022-11-05T02:08:40.731Z,9.20
2022-11-05T02:11:11.220Z,9.80
2022-11-05T02:13:40.734Z,9.20
2022-11-05T02:16:09.510Z,9.00
2022-11-05T02:18:49.011Z,9.00
2022-11-05T02:21:36.522Z,8.80
2022-11-05T02:24:31.640Z,9.50
2022-11-05T02:27:06.625Z,9.70
2022-11-05T02:29:53.749Z,10.20
2022-11-05T02:32:29.614Z,9.60
2022-11-05T02:35:06.983Z,9.20
2022-11-05T02:37:40.336Z,9.50
2022-11-05T02:40:13.773Z,9.90
2022-11-05T02:42:54.689Z,8.80
2022-11-05T02:45:42.172Z,8.90
2022-11-05T02:48:17.178Z,9.40
2022-11-05T02:51:04.655Z,9.90
2022-11-05T02:53:38.357Z,10.00
2022-11-05T02:56:14.300Z,9.90
2022-11-05T02:58:43.083Z,9.20
2022-11-05T03:01:12.540Z,9.20
2022-11-05T03:03:41.327Z,10.00
2022-11-05T03:06:13.057Z,8.80
2022-11-05T03:08:54.658Z,8.80
2022-11-05T03:11:26.122Z,9.90
2022-11-05T03:14:13.162Z,10.60
2022-11-05T03:16:43.419Z,10.30
2022-11-05T03:19:27.449Z,10.20
2022-11-05T03:22:00.574Z,9.10
2022-11-05T03:24:41.328Z,9.50
2022-11-05T03:27:12.422Z,9.80
2022-11-05T03:29:43.234Z,8.60
2022-11-05T03:32:12.677Z,9.20
2022-11-05T03:34:50.019Z,9.30
2022-11-05T03:37:22.644Z,10.00
2022-11-05T03:39:53.524Z,9.00
2022-11-05T03:42:26.006Z,10.00
2022-11-05T03:44:56.947Z,10.10
2022-11-05T03:47:29.996Z,9.90
2022-11-05T03:50:01.787Z,9.90
2022-11-05T03:52:33.746Z,8.90
2022-11-05T03:55:02.545Z,7.80
2022-11-05T03:57:36.538Z,9.80
2022-11-05T04:00:09.571Z,9.90
2022-11-05T04:05:07.794Z,9.40
2022-11-05T04:07:55.002Z,9.70
2022-11-05T04:10:42.503Z,8.90
2022-11-05T04:13:26.589Z,10.20
2022-11-05T04:16:14.557Z,8.50
2022-11-05T04:18:43.658Z,8.90
2022-11-05T04:21:31.051Z,10.40
2022-11-05T04:24:08.991Z,11.10
2022-11-05T04:26:42.156Z,9.90
2022-11-05T04:29:30.136Z,10.50
2022-11-05T04:31:58.936Z,10.20
2022-11-05T04:34:27.722Z,10.50
2022-11-05T04:36:56.559Z,8.70
2022-11-05T04:39:25.322Z,10.30
2022-11-05T04:41:54.081Z,10.50
2022-11-05T04:44:22.890Z,10.30
2022-11-05T04:46:51.911Z,10.30
2022-11-05T04:49:21.124Z,9.50
2022-11-05T04:51:49.959Z,9.80
2022-11-05T04:54:18.769Z,10.00
2022-11-05T04:56:47.511Z,9.30
2022-11-05T04:59:16.324Z,9.00
2022-11-05T05:01:45.191Z,10.90
2022-11-05T05:04:14.649Z,10.20
2022-11-05T05:06:43.983Z,10.60
2022-11-05T05:09:12.806Z,9.60
2022-11-05T05:11:41.572Z,9.80
2022-11-05T05:14:10.513Z,10.30
2022-11-05T05:16:39.266Z,10.00
2022-11-05T05:19:08.355Z,9.70
2022-11-05T05:21:40.613Z,11.10
2022-11-05T05:24:13.832Z,9.30
2022-11-05T05:26:43.828Z,11.00
2022-11-05T05:29:13.596Z,9.80
2022-11-05T05:31:44.160Z,9.90
2022-11-05T05:34:16.542Z,10.10
2022-11-05T05:36:45.424Z,7.20
2022-11-05T05:39:14.306Z,10.90
2022-11-05T05:41:43.127Z,11.30
2022-11-05T05:44:11.984Z,12.20
2022-11-05T05:46:40.892Z,11.20
2022-11-05T05:49:12.464Z,11.20
2022-11-05T05:51:42.480Z,10.40
2022-11-05T05:54:11.651Z,11.50
2022-11-05T05:56:42.588Z,10.40
2022-11-05T05:59:11.632Z,10.40
2022-11-05T06:01:40.742Z,11.30
2022-11-05T06:04:10.238Z,11.10
2022-11-05T06:06:38.996Z,11.60
2022-11-05T06:09:07.777Z,10.90
2022-11-05T06:11:36.579Z,10.20
2022-11-05T06:14:05.461Z,10.20
2022-11-05T06:16:36.048Z,9.90
2022-11-05T06:19:05.443Z,10.90
2022-11-05T06:21:34.586Z,11.10
2022-11-05T06:24:03.837Z,10.00
2022-11-05T06:26:39.365Z,12.40
2022-11-05T06:29:20.390Z,13.00
2022-11-05T06:37:15.122Z,10.90
2022-11-05T06:39:43.988Z,11.00
2022-11-05T06:42:18.272Z,11.20
2022-11-05T06:47:38.849Z,11.40
2022-11-05T06:50:08.585Z,11.20
2022-11-05T06:52:41.026Z,11.40
2022-11-05T06:55:08.889Z,10.30
2022-11-05T06:57:38.847Z,11.60
2022-11-05T07:00:08.426Z,11.00
2022-11-05T07:02:41.333Z,11.30
2022-11-05T07:08:17.334Z,11.80
2022-11-05T07:10:46.174Z,11.80
2022-11-05T07:13:15.411Z,12.20
2022-11-05T07:15:45.727Z,10.70
2022-11-05T07:18:15.209Z,11.50
2022-11-05T07:20:44.511Z,10.90
2022-11-05T07:23:14.361Z,11.30
2022-11-05T07:25:43.608Z,11.50
2022-11-05T07:28:14.472Z,12.20
2022-11-05T07:30:43.417Z,16.70
2022-11-05T07:33:12.885Z,13.50
2022-11-05T07:35:42.096Z,12.60
2022-11-05T07:38:10.949Z,11.70
2022-11-05T07:40:39.785Z,12.60
2022-11-05T07:43:09.389Z,11.40
2022-11-05T07:45:38.545Z,11.30
2022-11-05T07:48:15.222Z,12.50
2022-11-05T07:50:44.247Z,13.20
2022-11-05T07:53:14.927Z,12.80
2022-11-05T07:55:46.052Z,12.50
2022-11-05T07:58:14.941Z,12.70
2022-11-05T08:00:45.262Z,11.30
2022-11-05T08:03:16.064Z,11.80
2022-11-05T08:05:48.422Z,11.70
2022-11-05T08:08:18.503Z,11.20
2022-11-05T08:10:47.587Z,12.60
2022-11-05T08:13:16.676Z,12.50
2022-11-05T08:15:46.524Z,12.50
2022-11-05T08:18:21.805Z,12.40
2022-11-05T08:21:02.053Z,11.60
2022-11-05T08:23:31.619Z,11.70
2022-11-05T08:26:02.347Z,12.50
2022-11-05T08:28:31.285Z,13.00
2022-11-05T08:31:00.265Z,13.70
2022-11-05T08:36:34.419Z,13.50
2022-11-05T08:39:03.792Z,12.20
2022-11-05T08:41:33.149Z,12.40
2022-11-05T08:44:02.267Z,12.90
2022-11-05T08:46:31.149Z,11.30
2022-11-05T08:49:00.027Z,13.00
2022-11-05T08:51:31.959Z,13.70
2022-11-05T08:54:07.115Z,13.40
2022-11-05T08:56:55.811Z,13.90
2022-11-05T08:59:24.883Z,14.80
2022-11-05T09:01:53.908Z,12.90
2022-11-05T09:04:25.787Z,12.60
2022-11-05T09:06:56.719Z,13.00
2022-11-05T09:09:27.839Z,12.90
2022-11-05T09:12:11.773Z,14.80
2022-11-05T09:14:41.763Z,14.50
2022-11-05T09:17:16.002Z,14.50
2022-11-05T09:19:45.194Z,14.50
2022-11-05T09:22:14.086Z,15.10
2022-11-05T09:24:43.396Z,14.60
2022-11-05T09:27:15.822Z,10.60
2022-11-05T09:29:44.522Z,13.10
2022-11-05T09:32:13.331Z,13.00
2022-11-05T09:34:44.447Z,13.00
2022-11-05T09:37:13.351Z,14.50
2022-11-05T09:39:42.159Z,13.90
2022-11-05T09:42:13.226Z,13.70
2022-11-05T09:45:08.169Z,14.70
2022-11-05T09:47:40.848Z,14.40
2022-11-05T09:50:14.570Z,13.10
2022-11-05T09:52:43.494Z,13.60
2022-11-05T09:55:34.900Z,14.30
2022-11-05T09:58:06.662Z,15.10
2022-11-05T10:00:35.663Z,15.10
2022-11-05T10:03:06.757Z,15.90
2022-11-05T10:05:37.187Z,14.50
2022-11-05T10:08:11.594Z,14.60
2022-11-05T10:11:03.588Z,13.70
2022-11-05T10:13:38.115Z,12.60
2022-11-05T10:16:14.678Z,14.50
2022-11-05T10:18:47.113Z,14.20
2022-11-05T10:21:27.801Z,16.00
2022-11-05T10:24:14.193Z,15.10
2022-11-05T10:26:46.493Z,14.80
2022-11-05T10:29:18.225Z,14.40
2022-11-05T10:31:47.468Z,13.90
2022-11-05T10:34:17.969Z,14.10
2022-11-05T10:36:47.209Z,14.80
2022-11-05T10:39:17.583Z,15.50
2022-11-05T10:41:46.359Z,15.60
2022-11-05T10:44:34.055Z,17.00
2022-11-05T10:47:29.940Z,14.80
2022-11-05T10:50:00.010Z,15.50
2022-11-05T10:52:36.322Z,14.20
2022-11-05T10:55:25.470Z,13.40
2022-11-05T10:57:54.294Z,14.10
2022-11-05T11:00:24.583Z,15.90
2022-11-05T11:02:54.691Z,16.00
2022-11-05T11:05:28.459Z,14.90
2022-11-05T11:08:17.462Z,13.60
2022-11-05T11:10:49.044Z,14.70
2022-11-05T11:13:28.878Z,14.60
2022-11-05T11:16:13.579Z,13.70
2022-11-05T11:18:43.394Z,16.90
2022-11-05T11:21:16.388Z,17.10
2022-11-05T11:26:13.880Z,15.40
2022-11-05T11:28:58.142Z,16.20
2022-11-05T11:31:28.567Z,15.00
2022-11-05T11:34:00.524Z,16.40
2022-11-05T11:36:38.152Z,18.30
2022-11-05T11:39:07.389Z,18.80
2022-11-05T11:41:38.533Z,19.00
2022-11-05T11:44:11.516Z,14.10
2022-11-05T11:49:29.106Z,16.50
2022-11-05T11:52:09.252Z,16.80
2022-11-05T11:54:38.119Z,17.90
2022-11-05T11:57:32.925Z,17.90
2022-11-05T12:00:08.851Z,16.90
2022-11-05T12:02:47.316Z,17.10
2022-11-05T12:05:19.147Z,16.30
2022-11-05T12:07:54.045Z,16.40
2022-11-05T12:10:33.814Z,18.60
2022-11-05T12:13:21.004Z,17.80
2022-11-05T12:15:51.692Z,17.30
2022-11-05T12:18:35.582Z,18.20
2022-11-05T12:21:11.668Z,17.30
2022-11-05T12:23:40.429Z,17.70
2022-11-05T12:26:21.500Z,17.50
2022-11-05T12:29:17.747Z,18.00
2022-11-05T12:31:47.773Z,18.80
2022-11-05T12:34:35.367Z,16.90
2022-11-05T12:37:11.998Z,17.50
2022-11-05T12:39:43.968Z,18.70
2022-11-05T12:42:19.057Z,18.30
2022-11-05T12:44:47.853Z,16.70
2022-11-05T12:47:16.584Z,17.60
2022-11-05T12:50:03.803Z,17.90
2022-11-05T12:52:55.745Z,16.60
2022-11-05T12:55:25.789Z,12.60
2022-11-05T12:57:57.266Z,17.10
2022-11-05T13:00:27.998Z,15.40
2022-11-05T13:03:15.011Z,13.80
2022-11-05T13:05:46.448Z,14.90
2022-11-05T13:08:18.967Z,15.90
2022-11-05T13:11:03.344Z,15.20
2022-11-05T13:13:32.130Z,15.40
2022-11-05T13:16:19.699Z,16.70
2022-11-05T13:18:50.548Z,14.90
2022-11-05T13:21:23.847Z,17.40
2022-11-05T13:23:55.365Z,17.40
2022-11-05T13:26:27.519Z,16.90
2022-11-05T13:29:05.167Z,16.90
2022-11-05T13:31:40.261Z,16.30
2022-11-05T13:34:12.859Z,16.10
2022-11-05T13:37:12.689Z,15.50
2022-11-05T13:39:44.185Z,14.00
2022-11-05T13:42:30.898Z,16.00
2022-11-05T13:45:18.998Z,15.50
2022-11-05T13:47:47.860Z,15.60
2022-11-05T13:50:22.964Z,15.00
2022-11-05T13:52:54.460Z,15.30
2022-11-05T13:55:26.247Z,17.10
2022-11-05T13:58:01.205Z,14.00
2022-11-05T14:00:33.080Z,14.80
2022-11-05T14:03:22.079Z,15.40
2022-11-05T14:05:54.520Z,15.80
2022-11-05T14:08:26.678Z,16.10
2022-11-05T14:11:07.237Z,16.60
2022-11-05T14:13:38.217Z,16.80
2022-11-05T14:16:10.926Z,16.00
2022-11-05T14:18:42.510Z,16.00
2022-11-05T14:21:26.777Z,16.00
2022-11-05T14:23:57.364Z,16.00
2022-11-05T14:26:27.282Z,14.80
2022-11-05T14:29:05.569Z,16.10
2022-11-05T14:34:43.149Z,16.40
2022-11-05T14:37:12.566Z,15.90
2022-11-05T14:39:41.653Z,17.10
2022-11-05T14:42:20.129Z,19.10
2022-11-05T14:45:07.729Z,15.50
2022-11-05T14:47:40.600Z,17.60
2022-11-05T14:50:11.741Z,17.30
2022-11-05T14:52:50.123Z,18.40
2022-11-05T14:55:25.099Z,18.80
2022-11-05T14:57:53.846Z,20.30
2022-11-05T15:00:28.629Z,18.10
2022-11-05T15:02:58.879Z,17.50
2022-11-05T15:05:33.987Z,18.60
2022-11-05T15:08:22.065Z,17.60
2022-11-05T15:10:52.071Z,18.50
2022-11-05T15:13:33.155Z,19.70
2022-11-05T15:16:06.654Z,17.40
2022-11-05T15:18:38.856Z,17.40
2022-11-05T15:21:13.751Z,18.40
2022-11-05T15:23:44.229Z,17.20
2022-11-05T15:26:25.360Z,20.20
2022-11-05T15:28:55.169Z,21.70
2022-11-05T15:31:37.314Z,18.20
2022-11-05T15:34:20.699Z,16.50
2022-11-05T15:36:51.590Z,18.20
2022-11-05T15:39:32.032Z,18.10
2022-11-05T15:42:05.884Z,18.10
2022-11-05T15:44:39.240Z,19.30
2022-11-05T15:47:12.408Z,20.90
2022-11-05T15:50:14.093Z,17.60
2022-11-05T15:52:52.285Z,18.60
2022-11-05T15:55:26.451Z,21.60
2022-11-05T15:58:01.030Z,21.10
2022-11-05T16:00:33.486Z,19.80
2022-11-05T16:03:08.040Z,20.10
2022-11-05T16:05:47.827Z,18.90
2022-11-05T16:10:50.837Z,17.00
2022-11-05T16:13:32.489Z,19.90
2022-11-05T16:16:02.953Z,19.60
2022-11-05T16:18:33.433Z,19.00
2022-11-05T16:21:10.191Z,20.90
2022-11-05T16:23:48.481Z,17.80
2022-11-05T16:29:37.786Z,18.30
2022-11-05T16:32:16.298Z,18.50
2022-11-05T16:34:50.324Z,21.60
2022-11-05T16:37:21.564Z,22.20
2022-11-05T16:39:50.878Z,17.50
2022-11-05T16:42:22.633Z,18.70
2022-11-05T16:44:53.297Z,19.30
2022-11-05T16:47:22.635Z,20.10
2022-11-05T16:49:51.408Z,19.90
2022-11-05T16:52:20.267Z,20.00
2022-11-05T16:54:49.137Z,20.40
2022-11-05T16:57:21.254Z,20.40
2022-11-05T16:59:50.197Z,19.80
2022-11-05T17:02:20.021Z,19.40
2022-11-05T17:04:52.229Z,20.40
2022-11-05T17:07:22.621Z,21.60
2022-11-05T17:09:52.343Z,20.70
2022-11-05T17:12:22.121Z,21.60
2022-11-05T17:14:51.333Z,20.10
2022-11-05T17:17:20.326Z,19.70
2022-11-05T17:19:49.389Z,18.20
2022-11-05T17:22:18.315Z,19.00
2022-11-05T17:24:47.315Z,21.90
2022-11-05T17:27:16.797Z,22.30
2022-11-05T17:29:45.712Z,24.30
2022-11-05T17:32:14.647Z,20.60
2022-11-05T17:34:43.519Z,19.70
2022-11-05T17:37:12.360Z,18.00
2022-11-05T17:39:41.274Z,19.90
2022-11-05T17:42:10.092Z,20.40
2022-11-05T17:44:39.205Z,19.00
2022-11-05T17:47:08.407Z,18.60
2022-11-05T17:49:37.791Z,21.90
2022-11-05T17:52:06.669Z,20.30
2022-11-05T17:54:35.577Z,19.60
2022-11-05T17:57:05.478Z,18.60
2022-11-05T17:59:34.539Z,20.60
2022-11-05T18:02:04.004Z,21.50
2022-11-05T18:04:33.529Z,23.00
2022-11-05T18:07:02.565Z,23.40
2022-11-05T18:09:31.535Z,26.10
2022-11-05T18:12:00.945Z,56.60
2022-11-05T18:14:29.974Z,38.10
2022-11-05T18:17:00.383Z,25.10
2022-11-05T18:19:29.868Z,22.70
2022-11-05T18:21:58.944Z,20.90
2022-11-05T18:24:27.891Z,22.80
2022-11-05T18:26:56.792Z,22.10
2022-11-05T18:29:25.692Z,22.00
2022-11-05T18:31:54.796Z,22.70
2022-11-05T18:34:23.720Z,21.90
2022-11-05T18:36:56.424Z,21.20
2022-11-05T18:39:26.697Z,17.30
2022-11-05T18:42:05.405Z,19.40
2022-11-05T18:44:40.744Z,19.40
2022-11-05T18:47:09.904Z,18.20
2022-11-05T18:49:45.964Z,22.40
2022-11-05T18:52:15.358Z,24.80
2022-11-05T18:54:44.259Z,22.50
2022-11-05T18:57:13.151Z,23.50
2022-11-05T18:59:46.683Z,22.50
2022-11-05T19:02:15.827Z,21.90
2022-11-05T19:05:06.599Z,22.30
2022-11-05T19:07:37.725Z,22.90
2022-11-05T19:10:06.827Z,21.00
2022-11-05T19:12:35.674Z,22.40
2022-11-05T19:15:04.914Z,20.90
2022-11-05T19:17:33.981Z,19.50
2022-11-05T19:20:03.211Z,19.80
2022-11-05T19:22:32.301Z,22.90
2022-11-05T19:25:04.562Z,24.00
2022-11-05T19:27:34.865Z,20.10
2022-11-05T19:30:04.780Z,17.60
2022-11-05T19:32:33.703Z,17.00
2022-11-05T19:35:02.492Z,14.40
2022-11-05T19:37:31.283Z,14.50
2022-11-05T19:40:00.119Z,13.70
2022-11-05T19:42:29.054Z,10.70
2022-11-05T19:45:06.849Z,12.00
2022-11-05T19:47:48.777Z,10.30
2022-11-05T19:50:18.840Z,10.20
2022-11-05T19:52:47.797Z,10.70
2022-11-05T19:55:16.888Z,11.30
2022-11-05T19:57:47.118Z,10.60
2022-11-05T20:00:17.096Z,10.10
2022-11-05T20:02:46.789Z,9.50
2022-11-05T20:05:19.215Z,9.30
2022-11-05T20:07:52.782Z,10.20
2022-11-05T20:10:22.399Z,8.60
2022-11-05T20:12:51.829Z,8.00
2022-11-05T20:15:20.967Z,8.50
2022-11-05T20:17:51.348Z,7.60
2022-11-05T20:20:25.612Z,6.50
2022-11-05T20:22:58.220Z,8.10
2022-11-05T20:28:06.544Z,7.40
2022-11-05T20:30:40.183Z,7.90
2022-11-05T20:33:21.117Z,7.30
2022-11-05T20:35:50.511Z,6.80
2022-11-05T20:38:19.801Z,7.20
2022-11-05T20:40:50.397Z,6.30
2022-11-05T20:43:19.809Z,6.40
2022-11-05T20:45:49.057Z,6.70
2022-11-05T20:48:18.549Z,7.00
2022-11-05T20:50:47.636Z,6.90
2022-11-05T20:53:16.983Z,5.90
2022-11-05T20:58:20.268Z,7.60
2022-11-05T21:00:51.269Z,6.70
2022-11-05T21:03:20.333Z,6.70
2022-11-05T21:05:58.363Z,7.30
2022-11-05T21:08:27.740Z,7.70
2022-11-05T21:10:56.695Z,7.40
2022-11-05T21:13:25.848Z,7.70
2022-11-05T21:15:55.732Z,8.10
2022-11-05T21:18:25.923Z,8.20
2022-11-05T21:20:54.713Z,7.40
2022-11-05T21:23:23.679Z,9.30
2022-11-05T21:25:52.530Z,9.10
2022-11-05T21:28:21.528Z,7.90
2022-11-05T21:30:50.332Z,7.80
2022-11-05T21:33:19.216Z,8.30
2022-11-05T21:35:48.393Z,8.40
2022-11-05T21:38:18.120Z,6.60
2022-11-05T21:40:47.237Z,8.80
2022-11-05T21:43:16.805Z,9.10
2022-11-05T21:45:45.600Z,9.00
2022-11-05T21:48:15.467Z,8.40
2022-11-05T21:51:03.354Z,8.70
2022-11-05T21:53:51.056Z,8.70
2022-11-05T21:56:40.083Z,9.30
2022-11-05T21:59:29.142Z,9.00
2022-11-05T22:02:01.944Z,8.90
2022-11-05T22:04:32.207Z,8.50
2022-11-05T22:07:01.058Z,8.80
2022-11-05T22:09:29.907Z,8.30
2022-11-05T22:11:59.461Z,7.90
2022-11-05T22:14:28.361Z,8.50
2022-11-05T22:16:57.218Z,8.80
2022-11-05T22:19:26.088Z,9.00
2022-11-05T22:21:54.919Z,8.50
2022-11-05T22:24:24.278Z,8.40
2022-11-05T22:26:53.131Z,9.10
2022-11-05T22:29:21.926Z,7.50
2022-11-05T22:31:50.706Z,8.50
2022-11-05T22:34:19.979Z,8.20
2022-11-05T22:36:48.959Z,9.30
2022-11-05T22:39:17.767Z,9.20
2022-11-05T22:41:47.392Z,8.60
2022-11-05T22:44:17.344Z,8.60
2022-11-05T22:46:46.207Z,8.50
2022-11-05T22:49:14.998Z,9.00
2022-11-05T22:51:44.340Z,8.90
2022-11-05T22:54:13.149Z,9.30
2022-11-05T22:56:42.694Z,9.10
2022-11-05T22:59:13.570Z,9.10
2022-11-05T23:01:44.448Z,8.60
2022-11-05T23:04:14.041Z,7.30
2022-11-05T23:07:01.282Z,8.30
2022-11-05T23:09:50.229Z,8.90
2022-11-05T23:12:29.880Z,8.40
2022-11-05T23:14:59.666Z,9.10
2022-11-05T23:17:47.193Z,8.80
2022-11-05T23:20:39.281Z,8.50
2022-11-05T23:23:30.314Z,8.60
2022-11-05T23:25:59.856Z,7.60
2022-11-05T23:28:28.643Z,9.00
2022-11-05T23:31:16.235Z,8.30
2022-11-05T23:33:45.037Z,8.30
2022-11-05T23:36:32.826Z,9.20
2022-11-05T23:39:01.632Z,8.10
2022-11-05T23:41:49.177Z,7.90
2022-11-05T23:44:36.905Z,7.30
2022-11-05T23:47:24.379Z,7.90
2022-11-05T23:49:53.169Z,8.30
2022-11-05T23:52:21.934Z,8.10
2022-11-05T23:54:50.721Z,8.30
2022-11-05T23:57:19.481Z,8.10
2022-11-05T23:59:48.323Z,7.50
